METAR AND TAF INFORMATION

METAR FOR SVSA
ADDS - METARS form results

(0913 UTC 29 September 2022)
Data provider http://aviationweather.gov/metar/data/
 
Forecast for: SVSA (SAN ANTONIO TACH, VE)
Text: TAF SVSA 290400Z 2906/3006 00000KT 9999 BKN017 TX31/2919Z TN19/3008Z
Forecast period: 0600 UTC 29 September 2022 to 0600 UTC 30 September 2022
Forecast type: FROM: standard forecast or significant change
Winds: calm
Visibility: 6 or more miles (10+ km)
Ceiling: 1700 feet AGL
Clouds: broken clouds at 1700 feet AGL
Weather: no significant weather forecast for this period
Text: TEMPO 2904/2908 00000KT 9000 DZ SCT020
Forecast period: 0400 to 0800 UTC 29 September 2022
Forecast type: TEMPORARY: The following changes expected for less than half the time period
Winds: calm
Visibility: 6 miles (9 km)
Ceiling: at least 12,000 feet AGL
Clouds: scattered clouds at 2000 feet AGL
Weather: DZ  (moderate drizzle)

 

AIRPORT MAP

 

RUNWAY INFORMATION

Runway 17 Runway length 6135 ft Runway width 131 ft
Runway elevation 0 ft Runway displaced threshold 0 ft Runway heading 166
Runway 35 Runway length 6135 ft Runway width 131 ft
Runway elevation 0 ft Runway displaced threshold 0 ft Runway heading 346

 

AIRPORT FREQUENCIES

Type GND Name GND Frequency 121.9 MHZ
Type TWR Name TWR Frequency 118.5 MHZ

 

AIRPORT NEAR NAVIGATION AIDS